Latest Weather Observations for Holsworthy

IDN60801

Issued at 10:22 am EDT Friday 15 November 2019 (issued every 10 minutes, with the page automatically refreshed every 10 minutes)

About weather observations | Map of weather stations | Latest weather observations for NSW | Other Formats
Station Details ID: 066161 Name: HOLSWORTHY AERODROME AWS Lat: -33.99 Lon: 150.95 Height: 68.16 m
Data from the previous 72 hours. | See also: Recent months at Holsworthy
Date/Time
EDT
Temp
°C
App
Temp
°C
Dew
Point
°C
Rel
Hum
%
Delta-T
°C
Wind Press
QNH
hPa
Press
MSL
hPa
Rain since
9am
mm
Dir  Spd
km/h
Gust
km/h
Spd
kts
Gust
kts
15/10:00am 24.6 20.9 4.4 27 10.1 NW 13 22 7 12 1010.2 1010.0 0.0
15/09:30am 24.5 21.3 5.3 29 9.7 NW 11 17 6 9 1010.3 1010.1 0.0
15/09:00am 22.4 20.4 8.5 41 7.4 NNW 9 13 5 7 1010.7 1010.5 0.0
15/08:30am 20.4 18.4 8.7 47 6.2 NNW 9 11 5 6 1010.8 1010.6 0.0
15/08:00am 18.9 17.3 8.6 51 5.4 NNW 7 11 4 6 1010.7 1010.5 0.0
15/07:30am 16.9 15.4 8.3 57 4.4 WNW 6 7 3 4 1010.7 1010.5 0.0
15/07:00am 15.8 15.6 9.2 65 3.4 CALM 0 7 0 4 1010.6 1010.4 0.0
15/06:30am 13.6 13.5 9.5 76 2.1 CALM 0 6 0 3 1010.5 1010.3 0.0
15/06:00am 11.7 11.2 7.8 77 1.9 CALM 0 0 0 0 1010.3 1010.1 0.0
15/05:30am 12.1 11.3 8.2 77 1.9 ESE 2 6 1 3 1010.1 1009.9 0.0
15/05:00am 12.9 12.6 8.6 75 2.2 CALM 0 0 0 0 1010.0 1009.8 0.0
15/04:30am 12.2 10.7 8.5 78 1.8 WSW 6 7 3 4 1010.1 1009.9 0.0
15/04:00am 12.9 11.3 8.8 76 2.1 WSW 7 9 4 5 1010.2 1010.0 0.0
15/03:30am 12.4 10.5 9.1 80 1.7 W 9 11 5 6 1010.3 1010.1 0.0
15/03:00am 12.2 10.8 8.9 80 1.7 SW 6 7 3 4 1010.3 1010.1 0.0
15/02:30am 11.8 11.0 8.1 78 1.8 SW 2 9 1 5 1010.4 1010.2 0.0
15/02:00am 13.4 12.1 9.3 76 2.1 SSE 6 7 3 4 1010.8 1010.6 0.0
15/01:30am 13.6 12.2 8.9 73 2.4 SE 6 7 3 4 1011.2 1011.0 0.0
15/01:00am 14.2 12.8 9.0 71 2.7 S 6 9 3 5 1011.4 1011.2 0.0
15/12:30am 15.8 14.5 9.9 68 3.1 SSE 7 9 4 5 1011.6 1011.4 0.0
15/12:00am 15.6 13.9 9.7 68 3.1 SE 9 11 5 6 1011.7 1011.5 0.0
 
Date/Time
EDT
Temp
°C
App
Temp
°C
Dew
Point
°C
Rel
Hum
%
Delta-T
°C
Wind Press
QNH
hPa
Press
MSL
hPa
Rain since
9am
mm
Dir  Spd
km/h
Gust
km/h
Spd
kts
Gust
kts
14/11:30pm 16.4 14.8 10.3 67 3.2 SE 9 11 5 6 1011.8 1011.6 0.0
14/11:00pm 17.1 15.8 10.0 63 3.8 SE 7 9 4 5 1011.9 1011.7 0.0
14/10:30pm 17.9 16.6 9.8 59 4.3 E 7 9 4 5 1011.7 1011.5 0.0
14/10:00pm 18.2 16.9 9.8 58 4.5 E 7 20 4 11 1011.6 1011.4 0.0
14/09:30pm 18.1 16.6 9.2 56 4.7 SE 7 11 4 6 1011.5 1011.3 0.0
14/09:00pm 19.2 17.3 9.1 52 5.3 ESE 9 13 5 7 1011.2 1011.0 0.0
14/08:30pm 19.8 17.8 8.8 49 5.8 E 9 11 5 6 1010.9 1010.7 0.0
14/08:00pm 20.0 17.9 8.4 47 6.1 E 9 15 5 8 1010.6 1010.4 0.0
14/07:30pm 20.8 18.2 7.8 43 6.7 E 11 15 6 8 1010.5 1010.3 0.0
14/07:00pm 22.3 19.6 7.3 38 7.8 E 11 15 6 8 1010.2 1010.0 0.0
14/06:30pm 22.7 19.3 7.7 38 7.9 E 15 20 8 11 1010.0 1009.8 0.0
14/06:00pm 23.5 19.6 7.2 35 8.5 E 17 24 9 13 1009.6 1009.4 0.0
14/05:30pm 24.9 20.9 6.6 31 9.5 NE 17 22 9 12 1009.5 1009.3 0.0
14/05:00pm 25.1 20.6 6.3 30 9.8 NE 19 30 10 16 1009.5 1009.3 0.0
14/04:30pm 25.8 20.7 5.9 28 10.3 ENE 22 32 12 17 1009.5 1009.3 0.0
14/04:00pm 25.7 20.2 5.8 28 10.3 ENE 24 33 13 18 1009.8 1009.6 0.0
14/03:30pm 25.4 19.7 5.1 27 10.3 E 24 35 13 19 1010.2 1010.0 0.0
14/03:00pm 26.0 20.2 4.5 25 10.9 ENE 24 37 13 20 1010.6 1010.4 0.0
14/02:30pm 27.3 23.2 2.4 20 12.2 NNE 13 22 7 12 1011.0 1010.8 0.0
14/02:00pm 26.4 22.3 2.3 21 11.7 NNW 13 32 7 17 1011.7 1011.5 0.0
14/01:30pm 26.3 21.4 2.3 21 11.7 NNW 17 32 9 17 1012.4 1012.2 0.0
14/01:00pm 25.1 20.6 1.9 22 11.1 NNE 15 24 8 13 1012.9 1012.7 0.0
14/12:30pm 24.8 19.9 2.3 23 10.8 NNW 17 32 9 17 1013.5 1013.3 0.0
14/12:00pm 24.1 20.0 2.3 24 10.4 W 13 20 7 11 1014.1 1013.9 0.0
14/11:30am 23.7 20.4 2.5 25 10.2 NNE 9 19 5 10 1014.8 1014.5 0.0
14/11:00am 22.8 18.3 2.3 26 9.7 WSW 15 24 8 13 1015.1 1014.9 0.0
14/10:30am 22.6 19.6 2.1 26 9.7 W 7 17 4 9 1015.4 1015.2 0.0
14/10:00am 22.1 18.5 2.8 28 9.2 WSW 11 20 6 11 1015.5 1015.3 0.0
14/09:30am 21.1 16.6 1.9 28 8.9 SSW 15 22 8 12 1015.8 1015.6 0.0
14/09:00am 20.0 15.1 1.9 30 8.3 SW 17 24 9 13 1016.1 1015.9 0.0
14/08:30am 19.7 15.3 2.6 32 8.0 WSW 15 24 8 13 1015.9 1015.7 0.0
14/08:00am 18.5 14.3 1.9 33 7.5 W 13 19 7 10 1015.7 1015.5 0.0
14/07:30am 16.6 13.4 3.0 40 6.2 WSW 9 11 5 6 1015.4 1015.2 0.0
14/07:00am 14.8 11.4 1.7 41 5.7 WSW 9 13 5 7 1015.2 1015.0 0.0
14/06:30am 13.9 10.1 1.5 43 5.4 WSW 11 17 6 9 1014.9 1014.7 0.0
14/06:00am 12.4 9.0 1.7 48 4.6 WSW 9 13 5 7 1014.7 1014.4 0.0
14/05:30am 13.1 10.0 1.1 44 5.1 SW 7 7 4 4 1014.4 1014.1 0.0
14/05:00am 13.3 10.3 1.0 43 5.2 WSW 6 9 3 5 1014.0 1013.8 0.0
14/04:30am 13.7 10.2 1.0 42 5.4 WSW 9 17 5 9 1013.8 1013.6 0.0
14/04:00am 14.7 11.5 0.5 38 6.1 W 7 11 4 6 1013.6 1013.4 0.0
14/03:30am 14.5 10.6 1.1 40 5.8 WSW 11 15 6 8 1013.6 1013.4 0.0
14/03:00am 14.7 11.6 0.2 37 6.2 WNW 6 9 3 5 1013.5 1013.3 0.0
14/02:30am 13.6 10.9 0.6 41 5.5 WSW 4 11 2 6 1013.7 1013.5 0.0
14/02:00am 13.9 10.3 0.9 41 5.6 W 9 13 5 7 1013.7 1013.5 0.0
14/01:30am 14.2 9.5 0.8 40 5.7 WSW 15 19 8 10 1014.1 1013.9 0.0
14/01:00am 15.1 11.4 0.2 36 6.3 WSW 9 13 5 7 1014.1 1013.9 0.0
14/12:30am 15.5 12.4 0.1 35 6.6 W 6 7 3 4 1014.1 1013.9 0.0
14/12:00am 15.1 11.0 2.3 42 5.7 W 13 17 7 9 1014.1 1013.9 0.0
 
Date/Time
EDT
Temp
°C
App
Temp
°C
Dew
Point
°C
Rel
Hum
%
Delta-T
°C
Wind Press
QNH
hPa
Press
MSL
hPa
Rain since
9am
mm
Dir  Spd
km/h
Gust
km/h
Spd
kts
Gust
kts
13/11:30pm 14.9 11.8 3.4 46 5.2 W 9 11 5 6 1014.0 1013.8 0.0
13/11:00pm 14.8 12.2 6.1 56 4.2 W 9 17 5 9 1013.9 1013.7 0.0
13/10:30pm 13.0 11.4 7.9 71 2.5 SW 6 9 3 5 1013.9 1013.7 0.0
13/10:00pm 14.1 13.3 8.1 67 3.0 SW 2 9 1 5 1014.0 1013.8 0.0
13/09:30pm 14.5 13.2 7.5 63 3.5 E 4 9 2 5 1013.6 1013.4 0.0
13/09:00pm 17.7 16.4 9.3 58 4.4 NE 6 20 3 11 1013.1 1012.9 0.0
13/08:30pm 17.3 15.8 8.4 56 4.6 ENE 6 9 3 5 1012.9 1012.7 0.0
13/08:00pm 17.2 15.4 7.8 54 4.8 ENE 7 11 4 6 1012.4 1012.2 0.0
13/07:30pm 18.4 16.4 7.2 48 5.7 ENE 7 11 4 6 1012.1 1011.9 0.0
13/07:00pm 19.2 16.5 7.3 46 6.1 ENE 11 15 6 8 1011.4 1011.2 0.0
13/06:30pm 20.0 16.7 8.0 46 6.2 ESE 15 24 8 13 1010.6 1010.4 0.0
13/06:00pm 20.5 16.8 7.8 44 6.6 E 17 24 9 13 1010.3 1010.1 0.0
13/05:30pm 20.9 16.2 6.1 38 7.4 E 20 30 11 16 1009.9 1009.7 0.0
13/05:00pm 21.5 16.6 5.0 34 8.2 E 20 32 11 17 1010.0 1009.8 0.0
13/04:30pm 21.4 16.6 4.5 33 8.3 E 19 32 10 17 1010.0 1009.8 0.0
13/04:00pm 22.0 17.3 3.2 29 9.0 ENE 17 26 9 14 1010.0 1009.8 0.0
13/03:30pm 22.0 16.3 2.7 28 9.2 E 22 30 12 16 1010.3 1010.1 0.0
13/03:00pm 22.0 17.7 1.1 25 9.6 NE 13 20 7 11 1010.9 1010.7 0.0
13/02:30pm 22.6 18.5 -0.2 22 10.3 NE 11 20 6 11 1011.4 1011.2 0.0
13/02:00pm 23.8 18.4 -4.4 15 11.9 SSE 15 26 8 14 1011.6 1011.4 0.0
13/01:30pm 24.2 18.3 -9.3 10 12.9 WNW 15 22 8 12 1012.0 1011.8 0.0
13/01:00pm 23.0 18.8 -7.9 12 12.1 S 7 13 4 7 1012.3 1012.1 0.0
13/12:30pm 22.3 16.9 -8.4 12 11.8 SSW 13 32 7 17 1012.7 1012.5 0.0
13/12:00pm 21.4 16.1 -7.2 14 11.1 WNW 13 24 7 13 1013.1 1012.9 0.0
13/11:30am 22.3 17.5 -6.5 14 11.5 WNW 11 26 6 14 1013.2 1013.0 0.0
13/11:00am 20.5 14.5 -7.0 15 10.6 SW 17 30 9 16 1013.6 1013.4 0.0
13/10:30am 19.1 12.5 -6.5 17 9.9 W 20 33 11 18 1013.9 1013.7 0.0
13/10:00am 18.9 12.5 -4.5 20 9.4 W 20 30 11 16 1013.9 1013.7 0.0
13/09:30am 18.1 11.7 -5.2 20 9.1 WSW 20 30 11 16 1014.0 1013.8 0.0
13/09:00am 17.1 10.8 -4.2 23 8.4 WSW 20 35 11 19 1013.9 1013.7 0.0
13/08:30am 17.2 12.2 -1.0 29 7.7 W 15 28 8 15 1013.6 1013.4 0.0
13/08:00am 16.2 10.3 -0.9 31 7.2 W 20 32 11 17 1013.4 1013.2 0.0
13/07:30am 15.7 10.1 -0.1 34 6.7 W 19 32 10 17 1013.1 1012.9 0.0
13/07:00am 14.2 9.8 2.5 45 5.2 W 15 20 8 11 1012.9 1012.7 0.0
13/06:30am 13.1 10.2 4.8 57 3.8 W 9 13 5 7 1012.4 1012.2 0.0
13/06:00am 11.6 11.0 7.3 75 2.1 CALM 0 6 0 3 1012.1 1011.9 0.0
13/05:30am 11.3 10.4 7.8 79 1.7 NW 2 6 1 3 1011.6 1011.4 0.0
13/05:00am 12.0 11.7 8.7 80 1.6 CALM 0 0 0 0 1011.5 1011.3 0.0
13/04:30am 12.7 10.5 9.3 80 1.7 SSW 11 15 6 8 1011.3 1011.1 0.0
13/04:00am 12.0 9.8 9.2 83 1.4 WSW 11 13 6 7 1011.0 1010.8 0.0
13/03:30am 11.5 9.5 8.7 83 1.4 WSW 9 11 5 6 1010.7 1010.5 0.0
13/03:00am 13.2 11.4 9.6 79 1.8 SSW 9 11 5 6 1010.6 1010.4 0.0
13/02:30am 12.2 10.8 9.0 81 1.6 WNW 6 7 3 4 1010.5 1010.3 0.0
13/02:00am 13.3 12.8 9.5 78 1.9 NW 2 9 1 5 1010.4 1010.2 0.0
13/01:30am 14.4 13.3 9.8 74 2.4 SW 6 9 3 5 1010.3 1010.1 0.0
13/01:00am 15.1 13.4 9.9 71 2.7 SSW 9 13 5 7 1010.1 1009.9 0.0
13/12:30am 15.6 13.2 10.2 70 2.8 S 13 20 7 11 1010.1 1009.9 0.0
13/12:00am 16.0 11.6 10.5 70 2.9 S 24 39 13 21 1009.8 1009.6 0.0
 
Date/Time
EDT
Temp
°C
App
Temp
°C
Dew
Point
°C
Rel
Hum
%
Delta-T
°C
Wind Press
QNH
hPa
Press
MSL
hPa
Rain since
9am
mm
Dir  Spd
km/h
Gust
km/h
Spd
kts
Gust
kts
12/11:30pm 16.2 12.7 10.9 71 2.8 SSE 20 35 11 19 1009.5 1009.3 0.0
12/11:00pm 16.3 11.4 11.2 72 2.8 SSE 28 37 15 20 1009.4 1009.2 0.0
12/10:30pm 16.5 10.8 11.2 71 2.9 SSE 32 50 17 27 1008.8 1008.6 0.0
12/10:00pm 16.9 12.1 11.8 72 2.8 SSE 28 48 15 26 1008.5 1008.3 0.0
12/09:34pm 17.2 11.8 12.1 72 2.8 SSE 32 52 17 28 1007.3 1007.1 0.0
12/09:30pm 17.3 11.7 12.0 71 2.9 SSE 33 50 18 27 1007.3 1007.1 0.0
12/09:00pm 17.8 11.9 12.3 70 3.1 SSE 35 56 19 30 1006.4 1006.2 0.0
12/08:56pm 18.0 12.0 12.2 69 3.2 SSE 35 56 19 30 1006.3 1006.1 0.0
12/08:30pm 19.4 14.3 11.9 62 4.2 SSE 30 43 16 23 1005.6 1005.4 0.0
12/08:08pm 23.1 18.0 7.6 37 8.1 WSW 24 50 13 27 1004.9 1004.7 0.0
12/08:00pm 28.7 21.5 -2.4 13 14.2 W 26 50 14 27 1004.3 1004.1 0.0
12/07:41pm 29.0 21.3 -3.2 12 14.5 WSW 28 46 15 25 1003.8 1003.6 0.0
12/07:30pm 29.3 21.6 -3.0 12 14.6 WSW 28 41 15 22 1003.5 1003.3 0.0
12/07:00pm 31.1 24.0 -4.1 10 15.9 WSW 24 43 13 23 1002.5 1002.3 0.0
12/06:30pm 32.5 24.1 -6.0 8 17.0 W 30 52 16 28 1001.7 1001.4 0.0
12/06:00pm 33.9 25.4 -6.7 7 18.0 WNW 30 59 16 32 1000.7 1000.4 0.0
12/05:30pm 34.5 25.7 -6.3 7 18.2 WNW 32 56 17 30 1000.3 1000.0 0.0
12/05:19pm 34.9 26.9 -6.0 7 18.4 WNW 28 52 15 28 1000.1 999.8 0.0
12/05:00pm 35.1 28.2 -5.8 7 18.5 WNW 22 43 12 23 1000.2 999.9 0.0
12/04:33pm 35.2 27.0 -7.7 6 18.8 WNW 28 52 15 28 1000.1 999.8 0.0
12/04:30pm 35.4 27.4 -5.6 7 18.6 WNW 28 44 15 24 1000.1 999.8 0.0
12/04:00pm 35.8 26.9 -7.3 6 19.2 WNW 32 57 17 31 1000.0 999.7 0.0
12/03:30pm 35.6 27.2 -5.5 7 18.7 NW 30 52 16 28 1000.4 1000.1 0.0
12/03:00pm 35.5 26.8 -5.5 7 18.7 WNW 32 57 17 31 1000.6 1000.3 0.0
12/02:31pm 35.2 27.2 -5.7 7 18.5 NW 28 46 15 25 1001.3 1001.0 0.0
12/02:30pm 35.2 27.2 -5.7 7 18.5 NW 28 44 15 24 1001.3 1001.0 0.0
12/02:00pm 35.4 28.6 -5.6 7 18.7 WNW 22 43 12 23 1001.9 1001.6 0.0
12/01:50pm 35.1 26.7 -5.8 7 18.4 NW 30 48 16 26 1002.0 1001.7 0.0
12/01:48pm 34.4 26.0 -6.3 7 18.1 NW 30 48 16 26 1001.9 1001.6 0.0
12/01:30pm 34.7 27.0 -6.1 7 18.3 WNW 26 43 14 23 1002.3 1002.1 0.0
12/01:00pm 34.4 27.3 -4.6 8 17.9 NW 24 39 13 21 1002.9 1002.7 0.0
12/12:30pm 33.9 26.7 -4.9 8 17.6 NW 24 39 13 21 1003.4 1003.2 0.0
12/12:03pm 33.2 25.2 -5.5 8 17.3 NW 28 46 15 25 1003.8 1003.6 0.0
12/12:00pm 33.4 25.8 -5.3 8 17.4 NW 26 46 14 25 1003.9 1003.7 0.0
12/11:30am 32.9 25.4 -4.1 9 16.9 NW 26 46 14 25 1004.4 1004.2 0.0
12/11:00am 31.3 25.3 -1.5 12 15.5 NW 20 32 11 17 1005.1 1004.9 0.0
12/10:30am 29.8 24.3 0.4 15 14.2 NW 19 32 10 17 1005.9 1005.7 0.0

Other formats

Comma delimited format used in spreadsheet applications
http://www.bom.gov.au/fwo/IDN60801/IDN60801.95761.axf

JavaScript Object Notation format (JSON) in row-major order
http://www.bom.gov.au/fwo/IDN60801/IDN60801.95761.json

Data quality

Most of these data are generated automatically and are frequently updated. Quality checks on data are not normally performed. It is possible for incorrect values to appear. Refer to information at About Latest Weather Observations and please check the disclaimer before using these data.